sensor_id;sensor_type;location;lat;lon;timestamp;temperature;humidity
11963;DHT22;6041;52.130;5.584;2022-07-01T00:02:10;14.80;99.90
11963;DHT22;6041;52.130;5.584;2022-07-01T00:04:38;14.90;99.90
11963;DHT22;6041;52.130;5.584;2022-07-01T00:07:05;14.80;99.90
11963;DHT22;6041;52.130;5.584;2022-07-01T00:09:32;14.80;99.90
11963;DHT22;6041;52.130;5.584;2022-07-01T00:12:00;14.80;99.90
11963;DHT22;6041;52.130;5.584;2022-07-01T00:14:27;14.70;99.90
11963;DHT22;6041;52.130;5.584;2022-07-01T00:16:54;14.70;99.90
11963;DHT22;6041;52.130;5.584;2022-07-01T00:19:21;14.70;99.90
11963;DHT22;6041;52.130;5.584;2022-07-01T00:21:48;14.80;99.90
11963;DHT22;6041;52.130;5.584;2022-07-01T00:24:15;14.80;99.90
11963;DHT22;6041;52.130;5.584;2022-07-01T00:26:43;14.70;99.90
11963;DHT22;6041;52.130;5.584;2022-07-01T00:29:11;14.70;99.90
11963;DHT22;6041;52.130;5.584;2022-07-01T00:31:38;14.70;99.90
11963;DHT22;6041;52.130;5.584;2022-07-01T00:34:05;14.70;99.90
11963;DHT22;6041;52.130;5.584;2022-07-01T00:36:31;14.70;99.90
11963;DHT22;6041;52.130;5.584;2022-07-01T00:38:58;14.60;99.90
11963;DHT22;6041;52.130;5.584;2022-07-01T00:41:25;14.70;99.90
11963;DHT22;6041;52.130;5.584;2022-07-01T00:43:52;14.70;99.90
11963;DHT22;6041;52.130;5.584;2022-07-01T00:46:21;14.70;99.90
11963;DHT22;6041;52.130;5.584;2022-07-01T00:48:50;14.80;99.90
11963;DHT22;6041;52.130;5.584;2022-07-01T00:51:18;14.80;99.90
11963;DHT22;6041;52.130;5.584;2022-07-01T00:53:45;14.80;99.90
11963;DHT22;6041;52.130;5.584;2022-07-01T00:56:12;14.80;99.90
11963;DHT22;6041;52.130;5.584;2022-07-01T00:58:39;14.80;99.90
11963;DHT22;6041;52.130;5.584;2022-07-01T01:01:06;14.70;99.90
11963;DHT22;6041;52.130;5.584;2022-07-01T01:03:35;14.60;99.90
11963;DHT22;6041;52.130;5.584;2022-07-01T01:06:03;14.70;99.90
11963;DHT22;6041;52.130;5.584;2022-07-01T01:08:30;14.70;99.90
11963;DHT22;6041;52.130;5.584;2022-07-01T01:10:57;14.70;99.90
11963;DHT22;6041;52.130;5.584;2022-07-01T01:13:24;14.60;99.90
11963;DHT22;6041;52.130;5.584;2022-07-01T01:15:50;14.70;99.90
11963;DHT22;6041;52.130;5.584;2022-07-01T01:18:17;14.70;99.90
11963;DHT22;6041;52.130;5.584;2022-07-01T01:20:45;14.70;99.90
11963;DHT22;6041;52.130;5.584;2022-07-01T01:23:12;14.60;99.90
11963;DHT22;6041;52.130;5.584;2022-07-01T01:25:39;14.60;99.90
11963;DHT22;6041;52.130;5.584;2022-07-01T01:28:05;14.50;99.90
11963;DHT22;6041;52.130;5.584;2022-07-01T01:30:33;14.60;99.90
11963;DHT22;6041;52.130;5.584;2022-07-01T01:33:01;14.50;99.90
11963;DHT22;6041;52.130;5.584;2022-07-01T01:35:27;14.50;99.90
11963;DHT22;6041;52.130;5.584;2022-07-01T01:37:56;14.50;99.90
11963;DHT22;6041;52.130;5.584;2022-07-01T01:40:24;14.60;99.90
11963;DHT22;6041;52.130;5.584;2022-07-01T01:42:50;14.50;99.90
11963;DHT22;6041;52.130;5.584;2022-07-01T01:45:18;14.60;99.90
11963;DHT22;6041;52.130;5.584;2022-07-01T01:47:44;14.60;99.90
11963;DHT22;6041;52.130;5.584;2022-07-01T01:50:12;14.60;99.90
11963;DHT22;6041;52.130;5.584;2022-07-01T01:52:40;14.60;99.90
11963;DHT22;6041;52.130;5.584;2022-07-01T01:55:09;14.60;99.90
11963;DHT22;6041;52.130;5.584;2022-07-01T01:57:36;14.70;99.90
11963;DHT22;6041;52.130;5.584;2022-07-01T02:00:04;14.60;99.90
11963;DHT22;6041;52.130;5.584;2022-07-01T02:02:31;14.60;99.90
11963;DHT22;6041;52.130;5.584;2022-07-01T02:04:59;14.60;99.90
11963;DHT22;6041;52.130;5.584;2022-07-01T02:07:25;14.50;99.90
11963;DHT22;6041;52.130;5.584;2022-07-01T02:09:52;14.50;99.90
11963;DHT22;6041;52.130;5.584;2022-07-01T02:12:20;14.50;99.90
11963;DHT22;6041;52.130;5.584;2022-07-01T02:14:47;14.50;99.90
11963;DHT22;6041;52.130;5.584;2022-07-01T02:17:14;14.50;99.90
11963;DHT22;6041;52.130;5.584;2022-07-01T02:19:40;14.50;99.90
11963;DHT22;6041;52.130;5.584;2022-07-01T02:22:07;14.40;99.90
11963;DHT22;6041;52.130;5.584;2022-07-01T02:24:34;14.50;99.90
11963;DHT22;6041;52.130;5.584;2022-07-01T02:27:01;14.40;99.90
11963;DHT22;6041;52.130;5.584;2022-07-01T02:29:29;14.40;99.90
11963;DHT22;6041;52.130;5.584;2022-07-01T02:31:56;14.40;99.90
11963;DHT22;6041;52.130;5.584;2022-07-01T02:34:23;14.30;99.90
11963;DHT22;6041;52.130;5.584;2022-07-01T02:36:49;14.30;99.90
11963;DHT22;6041;52.130;5.584;2022-07-01T02:39:20;14.30;99.90
11963;DHT22;6041;52.130;5.584;2022-07-01T02:41:47;14.30;99.90
11963;DHT22;6041;52.130;5.584;2022-07-01T02:44:34;14.20;99.90
11963;DHT22;6041;52.130;5.584;2022-07-01T02:47:00;14.20;99.90
11963;DHT22;6041;52.130;5.584;2022-07-01T02:49:27;14.20;99.90
11963;DHT22;6041;52.130;5.584;2022-07-01T02:51:54;14.10;99.90
11963;DHT22;6041;52.130;5.584;2022-07-01T02:54:21;14.10;99.90
11963;DHT22;6041;52.130;5.584;2022-07-01T02:56:47;14.10;99.90
11963;DHT22;6041;52.130;5.584;2022-07-01T02:59:14;14.10;99.90
11963;DHT22;6041;52.130;5.584;2022-07-01T03:01:42;14.10;99.90
11963;DHT22;6041;52.130;5.584;2022-07-01T03:04:09;14.10;99.90
11963;DHT22;6041;52.130;5.584;2022-07-01T03:06:35;14.00;99.90
11963;DHT22;6041;52.130;5.584;2022-07-01T03:09:02;14.00;99.90
11963;DHT22;6041;52.130;5.584;2022-07-01T03:11:29;14.00;99.90
11963;DHT22;6041;52.130;5.584;2022-07-01T03:13:56;14.00;99.90
11963;DHT22;6041;52.130;5.584;2022-07-01T03:16:23;13.90;99.90
11963;DHT22;6041;52.130;5.584;2022-07-01T03:18:51;13.90;99.90
11963;DHT22;6041;52.130;5.584;2022-07-01T03:21:17;13.90;99.90
11963;DHT22;6041;52.130;5.584;2022-07-01T03:23:44;13.90;99.90
11963;DHT22;6041;52.130;5.584;2022-07-01T03:26:11;13.90;99.90
11963;DHT22;6041;52.130;5.584;2022-07-01T03:28:40;13.80;99.90
11963;DHT22;6041;52.130;5.584;2022-07-01T03:31:07;13.80;99.90
11963;DHT22;6041;52.130;5.584;2022-07-01T03:33:33;13.80;99.90
11963;DHT22;6041;52.130;5.584;2022-07-01T03:36:02;13.70;99.90
11963;DHT22;6041;52.130;5.584;2022-07-01T03:38:28;13.60;99.90
11963;DHT22;6041;52.130;5.584;2022-07-01T03:40:55;13.60;99.90
11963;DHT22;6041;52.130;5.584;2022-07-01T03:43:22;13.60;99.90
11963;DHT22;6041;52.130;5.584;2022-07-01T03:45:49;13.70;99.90
11963;DHT22;6041;52.130;5.584;2022-07-01T03:48:15;13.70;99.90
11963;DHT22;6041;52.130;5.584;2022-07-01T03:50:42;13.70;99.90
11963;DHT22;6041;52.130;5.584;2022-07-01T03:53:10;13.70;99.90
11963;DHT22;6041;52.130;5.584;2022-07-01T03:55:55;13.70;99.90
11963;DHT22;6041;52.130;5.584;2022-07-01T03:58:21;13.80;99.90
11963;DHT22;6041;52.130;5.584;2022-07-01T04:00:48;13.80;99.90
11963;DHT22;6041;52.130;5.584;2022-07-01T04:03:15;13.90;99.90
11963;DHT22;6041;52.130;5.584;2022-07-01T04:05:42;13.90;99.90
11963;DHT22;6041;52.130;5.584;2022-07-01T04:08:10;13.90;99.90
11963;DHT22;6041;52.130;5.584;2022-07-01T04:10:37;13.90;99.90
11963;DHT22;6041;52.130;5.584;2022-07-01T04:13:05;13.90;99.90
11963;DHT22;6041;52.130;5.584;2022-07-01T04:15:32;13.90;99.90
11963;DHT22;6041;52.130;5.584;2022-07-01T04:17:59;13.90;99.90
11963;DHT22;6041;52.130;5.584;2022-07-01T04:20:26;13.90;99.90
11963;DHT22;6041;52.130;5.584;2022-07-01T04:22:53;13.90;99.90
11963;DHT22;6041;52.130;5.584;2022-07-01T04:25:20;13.90;99.90
11963;DHT22;6041;52.130;5.584;2022-07-01T04:27:47;13.90;99.90
11963;DHT22;6041;52.130;5.584;2022-07-01T04:30:13;13.90;99.90
11963;DHT22;6041;52.130;5.584;2022-07-01T04:32:40;14.00;99.90
11963;DHT22;6041;52.130;5.584;2022-07-01T04:35:08;13.90;99.90
11963;DHT22;6041;52.130;5.584;2022-07-01T04:37:37;14.00;99.90
11963;DHT22;6041;52.130;5.584;2022-07-01T04:40:05;13.90;99.90
11963;DHT22;6041;52.130;5.584;2022-07-01T04:42:34;13.90;99.90
11963;DHT22;6041;52.130;5.584;2022-07-01T04:45:00;14.00;99.90
11963;DHT22;6041;52.130;5.584;2022-07-01T04:47:27;14.00;99.90
11963;DHT22;6041;52.130;5.584;2022-07-01T04:49:58;14.00;99.90
11963;DHT22;6041;52.130;5.584;2022-07-01T04:52:27;13.90;99.90
11963;DHT22;6041;52.130;5.584;2022-07-01T04:54:54;14.00;99.90
11963;DHT22;6041;52.130;5.584;2022-07-01T04:57:21;13.90;99.90
11963;DHT22;6041;52.130;5.584;2022-07-01T04:59:50;14.00;99.90
11963;DHT22;6041;52.130;5.584;2022-07-01T05:02:17;13.90;99.90
11963;DHT22;6041;52.130;5.584;2022-07-01T05:04:43;14.00;99.90
11963;DHT22;6041;52.130;5.584;2022-07-01T05:07:10;13.90;99.90
11963;DHT22;6041;52.130;5.584;2022-07-01T05:09:54;13.90;99.90
11963;DHT22;6041;52.130;5.584;2022-07-01T05:12:21;13.90;99.90
11963;DHT22;6041;52.130;5.584;2022-07-01T05:14:49;13.90;99.90
11963;DHT22;6041;52.130;5.584;2022-07-01T05:17:16;14.00;99.90
11963;DHT22;6041;52.130;5.584;2022-07-01T05:19:43;14.00;99.90
11963;DHT22;6041;52.130;5.584;2022-07-01T05:22:27;14.10;99.90
11963;DHT22;6041;52.130;5.584;2022-07-01T05:24:54;14.10;99.90
11963;DHT22;6041;52.130;5.584;2022-07-01T05:27:21;14.10;99.90
11963;DHT22;6041;52.130;5.584;2022-07-01T05:29:51;14.20;99.90
11963;DHT22;6041;52.130;5.584;2022-07-01T05:32:19;14.30;99.90
11963;DHT22;6041;52.130;5.584;2022-07-01T05:34:46;14.30;99.90
11963;DHT22;6041;52.130;5.584;2022-07-01T05:37:13;14.30;99.90
11963;DHT22;6041;52.130;5.584;2022-07-01T05:39:42;14.30;99.90
11963;DHT22;6041;52.130;5.584;2022-07-01T05:42:09;14.40;99.90
11963;DHT22;6041;52.130;5.584;2022-07-01T05:44:36;14.50;99.90
11963;DHT22;6041;52.130;5.584;2022-07-01T05:47:05;14.60;99.90
11963;DHT22;6041;52.130;5.584;2022-07-01T05:49:32;14.60;99.90
11963;DHT22;6041;52.130;5.584;2022-07-01T05:51:59;14.60;99.90
11963;DHT22;6041;52.130;5.584;2022-07-01T05:54:25;14.70;99.90
11963;DHT22;6041;52.130;5.584;2022-07-01T05:56:52;14.70;99.90
11963;DHT22;6041;52.130;5.584;2022-07-01T05:59:19;14.70;99.90
11963;DHT22;6041;52.130;5.584;2022-07-01T06:01:46;14.70;99.90
11963;DHT22;6041;52.130;5.584;2022-07-01T06:04:15;14.80;99.90
11963;DHT22;6041;52.130;5.584;2022-07-01T06:06:42;14.80;99.90
11963;DHT22;6041;52.130;5.584;2022-07-01T06:09:09;14.80;99.90
11963;DHT22;6041;52.130;5.584;2022-07-01T06:11:36;15.00;99.90
11963;DHT22;6041;52.130;5.584;2022-07-01T06:14:02;14.90;99.90
11963;DHT22;6041;52.130;5.584;2022-07-01T06:16:29;15.10;99.90
11963;DHT22;6041;52.130;5.584;2022-07-01T06:18:56;15.10;99.90
11963;DHT22;6041;52.130;5.584;2022-07-01T06:21:24;15.00;99.90
11963;DHT22;6041;52.130;5.584;2022-07-01T06:23:51;15.10;99.90
11963;DHT22;6041;52.130;5.584;2022-07-01T06:26:17;15.30;99.90
11963;DHT22;6041;52.130;5.584;2022-07-01T06:28:44;15.20;99.90
11963;DHT22;6041;52.130;5.584;2022-07-01T06:31:11;15.30;99.90
11963;DHT22;6041;52.130;5.584;2022-07-01T06:33:38;15.20;99.90
11963;DHT22;6041;52.130;5.584;2022-07-01T06:36:05;15.20;99.90
11963;DHT22;6041;52.130;5.584;2022-07-01T06:38:33;15.20;99.90
11963;DHT22;6041;52.130;5.584;2022-07-01T06:41:00;15.30;99.90
11963;DHT22;6041;52.130;5.584;2022-07-01T06:43:44;15.40;99.90
11963;DHT22;6041;52.130;5.584;2022-07-01T06:46:11;15.50;99.90
11963;DHT22;6041;52.130;5.584;2022-07-01T06:48:38;15.40;99.90
11963;DHT22;6041;52.130;5.584;2022-07-01T06:51:05;15.40;99.90
11963;DHT22;6041;52.130;5.584;2022-07-01T06:53:34;15.50;99.90
11963;DHT22;6041;52.130;5.584;2022-07-01T06:56:01;15.40;99.90
11963;DHT22;6041;52.130;5.584;2022-07-01T06:58:29;15.50;99.90
11963;DHT22;6041;52.130;5.584;2022-07-01T07:00:56;15.50;99.90
11963;DHT22;6041;52.130;5.584;2022-07-01T07:03:23;15.70;99.90
11963;DHT22;6041;52.130;5.584;2022-07-01T07:05:50;15.70;99.90
11963;DHT22;6041;52.130;5.584;2022-07-01T07:08:18;15.80;99.90
11963;DHT22;6041;52.130;5.584;2022-07-01T07:10:46;15.90;99.90
11963;DHT22;6041;52.130;5.584;2022-07-01T07:13:13;16.00;99.90
11963;DHT22;6041;52.130;5.584;2022-07-01T07:15:39;16.20;99.90
11963;DHT22;6041;52.130;5.584;2022-07-01T07:18:07;16.30;99.90
11963;DHT22;6041;52.130;5.584;2022-07-01T07:20:34;16.20;99.90
11963;DHT22;6041;52.130;5.584;2022-07-01T07:23:00;16.30;99.90
11963;DHT22;6041;52.130;5.584;2022-07-01T07:25:28;16.20;99.90
11963;DHT22;6041;52.130;5.584;2022-07-01T07:27:56;16.10;99.90
11963;DHT22;6041;52.130;5.584;2022-07-01T07:30:23;16.20;99.90
11963;DHT22;6041;52.130;5.584;2022-07-01T07:32:50;16.20;99.90
11963;DHT22;6041;52.130;5.584;2022-07-01T07:35:16;16.30;99.90
11963;DHT22;6041;52.130;5.584;2022-07-01T07:37:43;16.60;99.90
11963;DHT22;6041;52.130;5.584;2022-07-01T07:40:12;16.60;99.90
11963;DHT22;6041;52.130;5.584;2022-07-01T07:42:44;16.60;99.90
11963;DHT22;6041;52.130;5.584;2022-07-01T07:45:12;16.80;99.90
11963;DHT22;6041;52.130;5.584;2022-07-01T07:47:42;16.90;99.90
11963;DHT22;6041;52.130;5.584;2022-07-01T07:50:09;16.90;99.90
11963;DHT22;6041;52.130;5.584;2022-07-01T07:52:36;17.00;99.90
11963;DHT22;6041;52.130;5.584;2022-07-01T07:55:05;17.20;99.90
11963;DHT22;6041;52.130;5.584;2022-07-01T07:57:32;17.30;99.90
11963;DHT22;6041;52.130;5.584;2022-07-01T07:59:59;17.30;99.90
11963;DHT22;6041;52.130;5.584;2022-07-01T08:02:27;17.30;99.90
11963;DHT22;6041;52.130;5.584;2022-07-01T08:04:54;17.40;99.90
11963;DHT22;6041;52.130;5.584;2022-07-01T08:07:21;17.60;99.90
11963;DHT22;6041;52.130;5.584;2022-07-01T08:09:47;17.40;99.90
11963;DHT22;6041;52.130;5.584;2022-07-01T08:12:15;17.10;99.90
11963;DHT22;6041;52.130;5.584;2022-07-01T08:14:42;17.00;99.90
11963;DHT22;6041;52.130;5.584;2022-07-01T08:17:09;17.00;99.90
11963;DHT22;6041;52.130;5.584;2022-07-01T08:19:37;17.20;99.90
11963;DHT22;6041;52.130;5.584;2022-07-01T08:22:04;17.20;99.90
11963;DHT22;6041;52.130;5.584;2022-07-01T08:24:30;17.10;99.90
11963;DHT22;6041;52.130;5.584;2022-07-01T08:26:57;17.30;99.90
11963;DHT22;6041;52.130;5.584;2022-07-01T08:29:24;17.70;99.90
11963;DHT22;6041;52.130;5.584;2022-07-01T08:31:51;17.90;99.90
11963;DHT22;6041;52.130;5.584;2022-07-01T08:34:18;18.00;99.90
11963;DHT22;6041;52.130;5.584;2022-07-01T08:36:46;18.10;99.90
11963;DHT22;6041;52.130;5.584;2022-07-01T08:39:13;18.30;99.90
11963;DHT22;6041;52.130;5.584;2022-07-01T08:41:40;18.30;99.90
11963;DHT22;6041;52.130;5.584;2022-07-01T08:44:07;18.20;99.90
11963;DHT22;6041;52.130;5.584;2022-07-01T08:46:34;18.30;99.90
11963;DHT22;6041;52.130;5.584;2022-07-01T08:49:01;18.50;99.90
11963;DHT22;6041;52.130;5.584;2022-07-01T08:51:28;18.30;99.90
11963;DHT22;6041;52.130;5.584;2022-07-01T08:53:56;18.50;99.90
11963;DHT22;6041;52.130;5.584;2022-07-01T08:56:23;18.60;99.90
11963;DHT22;6041;52.130;5.584;2022-07-01T08:59:11;18.50;99.90
11963;DHT22;6041;52.130;5.584;2022-07-01T09:01:39;18.70;99.90
11963;DHT22;6041;52.130;5.584;2022-07-01T09:04:15;18.70;99.90
11963;DHT22;6041;52.130;5.584;2022-07-01T09:06:43;18.80;99.90
11963;DHT22;6041;52.130;5.584;2022-07-01T09:09:13;18.90;99.90
11963;DHT22;6041;52.130;5.584;2022-07-01T09:11:45;18.90;99.90
11963;DHT22;6041;52.130;5.584;2022-07-01T09:14:13;18.90;99.90
11963;DHT22;6041;52.130;5.584;2022-07-01T09:16:42;19.10;99.90
11963;DHT22;6041;52.130;5.584;2022-07-01T09:19:10;19.30;99.90
11963;DHT22;6041;52.130;5.584;2022-07-01T09:21:37;19.20;99.90
11963;DHT22;6041;52.130;5.584;2022-07-01T09:26:53;19.30;99.90
11963;DHT22;6041;52.130;5.584;2022-07-01T09:29:25;19.00;99.90
11963;DHT22;6041;52.130;5.584;2022-07-01T09:31:52;18.70;99.90
11963;DHT22;6041;52.130;5.584;2022-07-01T09:34:19;18.80;99.90
11963;DHT22;6041;52.130;5.584;2022-07-01T09:36:52;18.80;99.90
11963;DHT22;6041;52.130;5.584;2022-07-01T09:39:19;18.70;99.90
11963;DHT22;6041;52.130;5.584;2022-07-01T09:41:46;19.10;99.90
11963;DHT22;6041;52.130;5.584;2022-07-01T09:44:15;19.00;99.90
11963;DHT22;6041;52.130;5.584;2022-07-01T09:46:52;19.00;99.90
11963;DHT22;6041;52.130;5.584;2022-07-01T09:49:19;19.20;99.90
11963;DHT22;6041;52.130;5.584;2022-07-01T09:51:46;19.30;99.90
11963;DHT22;6041;52.130;5.584;2022-07-01T09:54:15;19.30;99.90
11963;DHT22;6041;52.130;5.584;2022-07-01T09:56:41;19.20;99.90
11963;DHT22;6041;52.130;5.584;2022-07-01T09:59:08;19.30;99.90
11963;DHT22;6041;52.130;5.584;2022-07-01T10:01:38;19.20;99.90
11963;DHT22;6041;52.130;5.584;2022-07-01T10:04:07;19.40;99.90
11963;DHT22;6041;52.130;5.584;2022-07-01T10:06:48;19.40;99.90
11963;DHT22;6041;52.130;5.584;2022-07-01T10:09:43;19.60;99.90
11963;DHT22;6041;52.130;5.584;2022-07-01T10:12:36;19.40;99.90
11963;DHT22;6041;52.130;5.584;2022-07-01T10:15:07;19.20;99.90
11963;DHT22;6041;52.130;5.584;2022-07-01T10:17:40;18.90;99.90
11963;DHT22;6041;52.130;5.584;2022-07-01T10:20:10;18.80;99.90
11963;DHT22;6041;52.130;5.584;2022-07-01T10:22:38;19.00;99.90
11963;DHT22;6041;52.130;5.584;2022-07-01T10:25:35;18.90;99.90
11963;DHT22;6041;52.130;5.584;2022-07-01T10:28:19;19.10;99.90
11963;DHT22;6041;52.130;5.584;2022-07-01T10:30:49;18.90;99.90
11963;DHT22;6041;52.130;5.584;2022-07-01T10:33:28;18.80;99.90
11963;DHT22;6041;52.130;5.584;2022-07-01T10:36:03;18.60;99.90
11963;DHT22;6041;52.130;5.584;2022-07-01T10:38:30;18.80;99.90
11963;DHT22;6041;52.130;5.584;2022-07-01T10:41:00;18.70;99.90
11963;DHT22;6041;52.130;5.584;2022-07-01T10:43:36;18.80;99.90
11963;DHT22;6041;52.130;5.584;2022-07-01T10:46:06;19.10;99.90
11963;DHT22;6041;52.130;5.584;2022-07-01T10:48:34;19.20;99.90
11963;DHT22;6041;52.130;5.584;2022-07-01T10:51:01;19.20;99.90
11963;DHT22;6041;52.130;5.584;2022-07-01T10:53:45;19.20;99.90
11963;DHT22;6041;52.130;5.584;2022-07-01T10:56:15;19.00;99.90
11963;DHT22;6041;52.130;5.584;2022-07-01T10:58:43;19.50;99.90
11963;DHT22;6041;52.130;5.584;2022-07-01T11:01:09;19.80;99.90
11963;DHT22;6041;52.130;5.584;2022-07-01T11:03:38;20.00;99.90
11963;DHT22;6041;52.130;5.584;2022-07-01T11:06:05;20.00;99.90
11963;DHT22;6041;52.130;5.584;2022-07-01T11:08:32;20.30;99.90
11963;DHT22;6041;52.130;5.584;2022-07-01T11:11:01;20.50;99.90
11963;DHT22;6041;52.130;5.584;2022-07-01T11:13:30;20.70;99.90
11963;DHT22;6041;52.130;5.584;2022-07-01T11:15:58;20.90;99.90
11963;DHT22;6041;52.130;5.584;2022-07-01T11:18:25;20.50;99.90
11963;DHT22;6041;52.130;5.584;2022-07-01T11:21:02;20.60;99.90
11963;DHT22;6041;52.130;5.584;2022-07-01T11:23:29;20.50;99.90
11963;DHT22;6041;52.130;5.584;2022-07-01T11:25:56;20.60;99.90
11963;DHT22;6041;52.130;5.584;2022-07-01T11:28:23;20.70;99.90
11963;DHT22;6041;52.130;5.584;2022-07-01T11:30:58;20.70;99.90
11963;DHT22;6041;52.130;5.584;2022-07-01T11:33:25;20.60;99.90
11963;DHT22;6041;52.130;5.584;2022-07-01T11:35:53;20.50;99.90
11963;DHT22;6041;52.130;5.584;2022-07-01T11:38:37;20.50;99.90
11963;DHT22;6041;52.130;5.584;2022-07-01T11:41:23;20.60;99.90
11963;DHT22;6041;52.130;5.584;2022-07-01T11:43:51;20.70;99.90
11963;DHT22;6041;52.130;5.584;2022-07-01T11:46:18;20.70;99.90
11963;DHT22;6041;52.130;5.584;2022-07-01T11:48:47;20.80;99.90
11963;DHT22;6041;52.130;5.584;2022-07-01T11:51:18;21.00;99.90
11963;DHT22;6041;52.130;5.584;2022-07-01T11:53:46;20.90;99.90
11963;DHT22;6041;52.130;5.584;2022-07-01T11:56:14;20.70;99.90
11963;DHT22;6041;52.130;5.584;2022-07-01T11:58:46;20.70;99.90
11963;DHT22;6041;52.130;5.584;2022-07-01T12:01:24;20.50;99.90
11963;DHT22;6041;52.130;5.584;2022-07-01T12:03:51;20.70;99.90
11963;DHT22;6041;52.130;5.584;2022-07-01T12:06:20;20.80;99.90
11963;DHT22;6041;52.130;5.584;2022-07-01T12:08:48;20.80;99.90
11963;DHT22;6041;52.130;5.584;2022-07-01T12:11:16;21.00;99.90
11963;DHT22;6041;52.130;5.584;2022-07-01T12:13:44;21.00;99.90
11963;DHT22;6041;52.130;5.584;2022-07-01T12:16:12;21.10;99.90
11963;DHT22;6041;52.130;5.584;2022-07-01T12:18:39;21.10;99.90
11963;DHT22;6041;52.130;5.584;2022-07-01T12:21:16;21.00;99.90
11963;DHT22;6041;52.130;5.584;2022-07-01T12:24:02;21.00;99.90
11963;DHT22;6041;52.130;5.584;2022-07-01T12:26:29;21.10;99.90
11963;DHT22;6041;52.130;5.584;2022-07-01T12:28:56;21.00;99.90
11963;DHT22;6041;52.130;5.584;2022-07-01T12:31:22;21.20;99.90
11963;DHT22;6041;52.130;5.584;2022-07-01T12:33:51;21.30;99.90
11963;DHT22;6041;52.130;5.584;2022-07-01T12:36:18;21.10;99.90
11963;DHT22;6041;52.130;5.584;2022-07-01T12:38:46;21.20;99.90
11963;DHT22;6041;52.130;5.584;2022-07-01T12:41:30;21.20;99.90
11963;DHT22;6041;52.130;5.584;2022-07-01T12:43:59;21.10;99.90
11963;DHT22;6041;52.130;5.584;2022-07-01T12:46:29;21.20;99.90
11963;DHT22;6041;52.130;5.584;2022-07-01T12:48:56;21.10;99.90
11963;DHT22;6041;52.130;5.584;2022-07-01T12:51:29;21.00;99.90
11963;DHT22;6041;52.130;5.584;2022-07-01T12:53:58;21.00;99.90
11963;DHT22;6041;52.130;5.584;2022-07-01T12:56:26;21.30;99.90
11963;DHT22;6041;52.130;5.584;2022-07-01T12:58:54;21.10;99.90
11963;DHT22;6041;52.130;5.584;2022-07-01T13:01:21;20.70;99.90
11963;DHT22;6041;52.130;5.584;2022-07-01T13:03:48;21.00;99.90
11963;DHT22;6041;52.130;5.584;2022-07-01T13:06:15;21.20;99.90
11963;DHT22;6041;52.130;5.584;2022-07-01T13:08:42;21.30;99.90
11963;DHT22;6041;52.130;5.584;2022-07-01T13:11:10;21.70;99.90
11963;DHT22;6041;52.130;5.584;2022-07-01T13:13:37;21.60;99.90
11963;DHT22;6041;52.130;5.584;2022-07-01T13:16:04;21.80;99.90
11963;DHT22;6041;52.130;5.584;2022-07-01T13:18:46;22.00;99.90
11963;DHT22;6041;52.130;5.584;2022-07-01T13:21:12;21.90;99.90
11963;DHT22;6041;52.130;5.584;2022-07-01T13:23:40;22.10;99.90
11963;DHT22;6041;52.130;5.584;2022-07-01T13:26:07;21.70;99.90
11963;DHT22;6041;52.130;5.584;2022-07-01T13:28:36;21.20;99.90
11963;DHT22;6041;52.130;5.584;2022-07-01T13:31:04;21.00;99.90
11963;DHT22;6041;52.130;5.584;2022-07-01T13:33:31;20.80;99.90
11963;DHT22;6041;52.130;5.584;2022-07-01T13:35:58;20.40;99.90
11963;DHT22;6041;52.130;5.584;2022-07-01T13:38:25;20.40;99.90
11963;DHT22;6041;52.130;5.584;2022-07-01T13:40:52;20.30;99.90
11963;DHT22;6041;52.130;5.584;2022-07-01T13:43:18;20.30;99.90
11963;DHT22;6041;52.130;5.584;2022-07-01T13:45:46;20.20;99.90
11963;DHT22;6041;52.130;5.584;2022-07-01T13:48:13;19.60;99.90
11963;DHT22;6041;52.130;5.584;2022-07-01T13:50:40;19.60;99.90
11963;DHT22;6041;52.130;5.584;2022-07-01T13:53:07;19.90;99.90
11963;DHT22;6041;52.130;5.584;2022-07-01T13:55:33;20.10;99.90
11963;DHT22;6041;52.130;5.584;2022-07-01T13:58:00;20.30;99.90
11963;DHT22;6041;52.130;5.584;2022-07-01T14:00:27;20.20;99.90
11963;DHT22;6041;52.130;5.584;2022-07-01T14:02:55;20.20;99.90
11963;DHT22;6041;52.130;5.584;2022-07-01T14:05:22;19.90;99.90
11963;DHT22;6041;52.130;5.584;2022-07-01T14:07:48;19.80;99.90
11963;DHT22;6041;52.130;5.584;2022-07-01T14:10:15;20.20;99.90
11963;DHT22;6041;52.130;5.584;2022-07-01T14:12:42;20.40;99.90
11963;DHT22;6041;52.130;5.584;2022-07-01T14:15:09;20.60;99.90
11963;DHT22;6041;52.130;5.584;2022-07-01T14:17:36;20.90;99.90
11963;DHT22;6041;52.130;5.584;2022-07-01T14:20:07;21.20;99.90
11963;DHT22;6041;52.130;5.584;2022-07-01T14:22:34;21.20;99.90
11963;DHT22;6041;52.130;5.584;2022-07-01T14:25:01;20.80;99.90
11963;DHT22;6041;52.130;5.584;2022-07-01T14:27:28;20.90;99.90
11963;DHT22;6041;52.130;5.584;2022-07-01T14:29:55;21.30;99.90
11963;DHT22;6041;52.130;5.584;2022-07-01T14:32:22;21.40;99.90
11963;DHT22;6041;52.130;5.584;2022-07-01T14:34:53;20.90;99.90
11963;DHT22;6041;52.130;5.584;2022-07-01T14:37:21;21.10;99.90
11963;DHT22;6041;52.130;5.584;2022-07-01T14:39:48;21.10;99.90
11963;DHT22;6041;52.130;5.584;2022-07-01T14:42:18;21.00;99.90
11963;DHT22;6041;52.130;5.584;2022-07-01T14:44:45;21.10;99.90
11963;DHT22;6041;52.130;5.584;2022-07-01T14:47:12;20.70;99.90
11963;DHT22;6041;52.130;5.584;2022-07-01T14:49:39;20.60;99.90
11963;DHT22;6041;52.130;5.584;2022-07-01T14:52:06;20.50;99.90
11963;DHT22;6041;52.130;5.584;2022-07-01T14:54:34;20.40;99.90
11963;DHT22;6041;52.130;5.584;2022-07-01T14:57:01;21.00;99.90
11963;DHT22;6041;52.130;5.584;2022-07-01T14:59:28;21.60;99.90
11963;DHT22;6041;52.130;5.584;2022-07-01T15:01:55;22.00;99.90
11963;DHT22;6041;52.130;5.584;2022-07-01T15:04:25;21.90;99.90
11963;DHT22;6041;52.130;5.584;2022-07-01T15:06:52;21.90;99.90
11963;DHT22;6041;52.130;5.584;2022-07-01T15:09:19;21.40;99.90
11963;DHT22;6041;52.130;5.584;2022-07-01T15:11:49;21.00;99.90
11963;DHT22;6041;52.130;5.584;2022-07-01T15:14:16;20.70;99.90
11963;DHT22;6041;52.130;5.584;2022-07-01T15:16:42;20.50;99.90
11963;DHT22;6041;52.130;5.584;2022-07-01T15:19:10;20.40;99.90
11963;DHT22;6041;52.130;5.584;2022-07-01T15:21:37;20.50;99.90
11963;DHT22;6041;52.130;5.584;2022-07-01T15:24:04;20.40;99.90
11963;DHT22;6041;52.130;5.584;2022-07-01T15:26:31;20.20;99.90
11963;DHT22;6041;52.130;5.584;2022-07-01T15:28:59;20.20;99.90
11963;DHT22;6041;52.130;5.584;2022-07-01T15:31:26;20.20;99.90
11963;DHT22;6041;52.130;5.584;2022-07-01T15:33:53;20.10;99.90
11963;DHT22;6041;52.130;5.584;2022-07-01T15:36:20;20.30;99.90
11963;DHT22;6041;52.130;5.584;2022-07-01T15:38:47;20.50;99.90
11963;DHT22;6041;52.130;5.584;2022-07-01T15:41:15;20.80;99.90
11963;DHT22;6041;52.130;5.584;2022-07-01T15:43:43;21.20;99.90
11963;DHT22;6041;52.130;5.584;2022-07-01T15:46:11;20.90;99.90
11963;DHT22;6041;52.130;5.584;2022-07-01T15:48:38;20.70;99.90
11963;DHT22;6041;52.130;5.584;2022-07-01T15:51:05;21.10;99.90
11963;DHT22;6041;52.130;5.584;2022-07-01T15:53:32;21.40;99.90
11963;DHT22;6041;52.130;5.584;2022-07-01T15:55:59;21.20;99.90